Time;durP1;ratioP1;P1;durP2;ratioP2;P2;SDS_P1;SDS_P2;PMS_P1;PMS_P2;Temp;Humidity;BMP_temperature;BMP_pressure;BME280_temperature;BME280_humidity;BME280_pressure;Samples;Min_cycle;Max_cycle;Signal;HPM_P1;HPM_P2
2021/06/06 00:01:07;;;;;;;43.95;22.27;;;;;;;15.42;69.04;99259.03;5053456;28;20123;-71
2021/06/06 00:03:39;;;;;;;41.65;26.30;;;;;;;15.39;69.17;99251.34;5071446;28;20048;-71
2021/06/06 00:06:12;;;;;;;42.40;27.33;;;;;;;15.37;69.25;99250.72;5071301;28;20582;-71
2021/06/06 00:08:38;;;;;;;44.15;27.75;;;;;;;15.36;69.40;99249.03;5070293;28;20135;-72
2021/06/06 00:11:10;;;;;;;43.10;27.35;;;;;;;15.33;69.36;99246.75;5071180;28;20044;-71
2021/06/06 00:13:40;;;;;;;41.30;23.27;;;;;;;15.28;69.30;99243.88;5071255;28;20048;-71
2021/06/06 00:16:08;;;;;;;40.88;22.50;;;;;;;15.31;69.46;99251.50;5071168;28;20500;-72
2021/06/06 00:18:34;;;;;;;39.88;24.55;;;;;;;15.30;69.60;99246.34;5070095;28;20439;-72
2021/06/06 00:21:00;;;;;;;44.38;24.02;;;;;;;15.25;69.51;99241.59;5069720;28;20447;-71
2021/06/06 00:23:26;;;;;;;56.30;28.58;;;;;;;15.30;69.58;99254.38;5071129;28;20051;-71
2021/06/06 00:25:52;;;;;;;42.35;24.90;;;;;;;15.31;69.49;99248.00;5053413;28;20045;-71
2021/06/06 00:28:18;;;;;;;37.63;22.02;;;;;;;15.31;69.51;99253.34;5053439;28;20047;-72
2021/06/06 00:30:44;;;;;;;30.95;19.75;;;;;;;15.30;69.80;99249.84;5071040;28;20068;-72
2021/06/06 00:33:10;;;;;;;32.92;21.15;;;;;;;15.27;69.64;99240.38;5053120;28;20127;-72
2021/06/06 00:35:37;;;;;;;34.30;21.13;;;;;;;15.21;69.82;99234.97;5036828;28;20408;-69
2021/06/06 00:38:03;;;;;;;37.60;22.08;;;;;;;15.30;69.76;99243.69;5070923;28;20525;-71
2021/06/06 00:40:31;;;;;;;43.92;23.55;;;;;;;15.27;69.83;99253.75;5069752;28;20058;-71
2021/06/06 00:42:58;;;;;;;38.25;22.05;;;;;;;15.13;69.98;99230.59;5069513;28;20405;-71
2021/06/06 00:45:28;;;;;;;42.30;23.75;;;;;;;15.17;70.08;99233.72;5069530;28;20131;-71
2021/06/06 00:47:54;;;;;;;43.08;23.05;;;;;;;15.12;70.34;99231.63;5069516;28;20420;-67
2021/06/06 00:50:31;;;;;;;39.85;23.10;;;;;;;15.12;70.59;99236.16;5069994;28;20110;-72
2021/06/06 00:53:00;;;;;;;42.88;24.33;;;;;;;15.05;70.61;99230.75;5069434;28;20052;-71
2021/06/06 00:55:27;;;;;;;43.90;23.73;;;;;;;15.06;70.69;99235.09;5053230;28;20056;-71
2021/06/06 00:57:54;;;;;;;47.47;24.15;;;;;;;15.02;70.85;99235.69;5069688;28;20460;-72
2021/06/06 01:00:33;;;;;;;45.90;23.58;;;;;;;15.02;70.99;99236.50;5053305;28;20044;-72
2021/06/06 01:03:00;;;;;;;45.05;23.35;;;;;;;14.88;70.83;99207.22;5070836;28;20043;-71
2021/06/06 01:05:32;;;;;;;34.50;19.80;;;;;;;14.93;70.88;99212.78;5069523;28;20131;-71
2021/06/06 01:08:01;;;;;;;40.47;20.67;;;;;;;15.01;70.79;99220.66;5069239;28;20071;-71
2021/06/06 01:10:28;;;;;;;39.85;21.33;;;;;;;14.91;70.97;99209.50;5070733;28;20404;-71
2021/06/06 01:13:08;;;;;;;41.88;20.10;;;;;;;14.97;71.00;99216.72;5053102;28;20450;-71
2021/06/06 01:15:47;;;;;;;39.90;21.67;;;;;;;14.97;70.84;99214.06;5069294;28;20044;-72
2021/06/06 01:18:22;;;;;;;41.35;22.65;;;;;;;15.05;70.84;99221.94;5070761;28;20423;-72
2021/06/06 01:21:17;;;;;;;41.55;22.10;;;;;;;15.05;71.15;99235.31;5036915;28;20040;-71
2021/06/06 01:24:09;;;;;;;38.95;19.77;;;;;;;15.02;71.15;99225.81;5070393;28;20499;-73
2021/06/06 01:26:44;;;;;;;39.10;20.15;;;;;;;15.03;71.25;99237.34;5070660;28;20044;-71
2021/06/06 01:29:35;;;;;;;35.72;18.50;;;;;;;15.04;71.15;99236.31;5069340;28;20143;-72
2021/06/06 01:32:11;;;;;;;29.33;17.23;;;;;;;15.06;71.24;99236.94;5068863;28;20068;-71
2021/06/06 01:34:41;;;;;;;33.63;17.77;;;;;;;15.03;71.03;99226.63;5069337;28;20048;-71
2021/06/06 01:37:13;;;;;;;37.38;17.42;;;;;;;15.10;70.90;99239.03;5052586;28;20105;-71
2021/06/06 01:39:46;;;;;;;36.70;17.25;;;;;;;15.11;71.03;99234.50;5052392;28;20419;-71
2021/06/06 01:42:29;;;;;;;40.42;18.10;;;;;;;15.12;70.96;99230.81;5053066;28;20053;-72
2021/06/06 01:45:00;;;;;;;33.22;16.80;;;;;;;15.13;71.16;99227.94;5069403;28;20043;-71
2021/06/06 01:47:27;;;;;;;33.25;15.80;;;;;;;15.14;70.94;99221.56;5052671;28;20047;-71
2021/06/06 01:49:57;;;;;;;34.53;15.57;;;;;;;15.18;70.77;99222.00;5069429;28;20060;-71
2021/06/06 01:52:29;;;;;;;31.23;15.88;;;;;;;15.12;70.70;99198.72;5053798;28;20128;-72
2021/06/06 01:54:58;;;;;;;24.60;14.60;;;;;;;15.24;70.63;99218.53;5036423;28;20047;-72
2021/06/06 01:57:27;;;;;;;31.75;13.65;;;;;;;15.30;70.63;99220.41;5054716;28;20041;-72
2021/06/06 02:00:00;;;;;;;31.23;14.13;;;;;;;15.34;70.38;99219.00;5056991;28;20078;-71
2021/06/06 02:02:31;;;;;;;31.23;13.15;;;;;;;15.35;70.23;99212.63;5057091;28;20045;-72
2021/06/06 02:04:59;;;;;;;28.42;13.55;;;;;;;15.27;70.38;99195.91;5072589;28;20048;-66
2021/06/06 02:07:30;;;;;;;34.05;14.13;;;;;;;15.41;70.29;99219.88;5072998;28;20059;-72
2021/06/06 02:10:08;;;;;;;24.67;14.38;;;;;;;15.43;70.19;99222.34;5057233;28;20135;-71
2021/06/06 02:12:38;;;;;;;28.83;13.15;;;;;;;15.45;70.07;99214.97;5073396;28;20466;-71
2021/06/06 02:15:22;;;;;;;23.90;13.07;;;;;;;15.50;70.05;99207.16;5056930;28;20071;-72
2021/06/06 02:18:09;;;;;;;21.50;12.18;;;;;;;15.56;69.74;99209.03;5073280;28;20048;-72
2021/06/06 02:20:41;;;;;;;31.30;13.05;;;;;;;15.49;69.84;99194.78;5074554;28;20114;-72
2021/06/06 02:23:08;;;;;;;26.27;12.10;;;;;;;15.55;69.52;99199.34;5039365;28;20040;-71
2021/06/06 02:25:36;;;;;;;29.15;12.75;;;;;;;15.66;69.34;99213.00;5039653;28;20040;-72
2021/06/06 02:28:32;;;;;;;28.25;12.13;;;;;;;15.69;69.31;99217.94;5040404;28;20055;-72
2021/06/06 02:31:13;;;;;;;23.42;12.88;;;;;;;15.75;69.01;99213.63;5056116;28;20090;-71
2021/06/06 02:33:43;;;;;;;23.02;12.82;;;;;;;15.76;68.88;99212.63;5055629;28;20048;-71
2021/06/06 02:36:19;;;;;;;29.95;12.95;;;;;;;15.75;68.82;99216.31;5071873;28;20044;-71
2021/06/06 02:39:08;;;;;;;26.05;13.30;;;;;;;15.84;68.83;99217.78;5071939;28;20460;-72
2021/06/06 02:41:49;;;;;;;30.98;13.63;;;;;;;15.83;68.98;99224.16;5055567;28;20066;-72
2021/06/06 02:44:41;;;;;;;26.75;12.25;;;;;;;15.85;68.75;99219.44;5071882;28;20098;-72
2021/06/06 02:47:16;;;;;;;26.55;12.82;;;;;;;15.86;68.61;99219.25;5071491;28;20044;-72
2021/06/06 02:49:46;;;;;;;22.60;12.10;;;;;;;15.89;68.63;99218.84;5039548;28;20075;-71
2021/06/06 02:52:23;;;;;;;22.95;11.35;;;;;;;15.88;68.70;99217.19;5072796;28;20079;-72
2021/06/06 02:54:56;;;;;;;22.65;11.07;;;;;;;15.90;68.78;99217.78;5071572;28;20131;-72
2021/06/06 02:57:38;;;;;;;22.00;11.32;;;;;;;15.88;68.88;99205.66;5057111;28;20068;-72
2021/06/06 03:00:20;;;;;;;24.90;11.80;;;;;;;15.92;68.81;99210.41;5055225;28;20072;-72
2021/06/06 03:02:56;;;;;;;17.70;11.07;;;;;;;15.96;68.70;99216.19;5071523;28;20086;-71
2021/06/06 03:05:26;;;;;;;19.70;10.95;;;;;;;15.92;68.66;99206.88;5038316;28;20040;-72
2021/06/06 03:07:53;;;;;;;25.45;11.43;;;;;;;15.93;68.42;99198.66;5054771;28;20658;-71
2021/06/06 03:10:28;;;;;;;27.92;11.23;;;;;;;16.09;68.40;99219.72;5054617;28;20079;-72
2021/06/06 03:12:56;;;;;;;21.05;11.25;;;;;;;16.07;68.39;99208.38;5054832;28;20079;-72
2021/06/06 03:15:32;;;;;;;21.83;10.00;;;;;;;16.24;67.96;99220.34;5038487;28;20079;-72
2021/06/06 03:17:59;;;;;;;21.67;9.80;;;;;;;16.27;67.72;99211.91;5054855;28;20048;-72
2021/06/06 03:20:33;;;;;;;13.65;8.55;;;;;;;16.33;67.56;99211.06;5071224;28;20052;-72
2021/06/06 03:23:03;;;;;;;15.88;9.63;;;;;;;16.39;67.24;99217.50;5039277;28;20045;-71
2021/06/06 03:25:40;;;;;;;17.30;8.85;;;;;;;16.44;67.29;99205.13;5054629;28;20043;-72
2021/06/06 03:28:09;;;;;;;18.20;9.43;;;;;;;16.43;67.11;99206.16;5054474;28;20177;-71
2021/06/06 03:30:43;;;;;;;16.17;8.32;;;;;;;16.57;66.77;99204.31;5054617;28;20484;-71
2021/06/06 03:33:23;;;;;;;15.20;8.50;;;;;;;16.66;66.68;99211.97;5055334;28;20408;-71
2021/06/06 03:35:53;;;;;;;11.85;8.68;;;;;;;16.72;66.24;99211.13;5054633;28;20056;-71
2021/06/06 03:38:20;;;;;;;15.93;8.68;;;;;;;16.78;66.24;99212.97;5070974;28;20036;-71
2021/06/06 03:40:46;;;;;;;15.65;8.02;;;;;;;16.77;65.95;99194.41;5070793;28;20102;-71
2021/06/06 03:43:20;;;;;;;19.08;7.85;;;;;;;16.95;65.71;99209.84;5070686;28;20127;-71
2021/06/06 03:45:47;;;;;;;13.02;7.50;;;;;;;17.01;65.14;99211.69;5071537;28;20053;-71
2021/06/06 03:48:14;;;;;;;10.50;6.55;;;;;;;17.06;65.04;99210.03;5054116;28;20144;-72
2021/06/06 03:50:42;;;;;;;15.43;7.72;;;;;;;17.14;64.99;99206.31;5071673;28;20515;-71
2021/06/06 03:53:10;;;;;;;16.63;7.50;;;;;;;17.25;64.54;99206.47;5070183;28;20110;-71
2021/06/06 03:55:38;;;;;;;16.75;7.18;;;;;;;17.35;64.32;99197.97;5070400;28;20055;-71
2021/06/06 03:58:08;;;;;;;19.10;7.25;;;;;;;17.39;63.70;99185.78;5070582;28;20039;-71
2021/06/06 04:00:41;;;;;;;14.05;7.05;;;;;;;17.62;63.53;99203.06;5070738;28;20071;-72
2021/06/06 04:03:09;;;;;;;14.85;6.53;;;;;;;17.76;63.11;99206.53;5071240;28;20455;-71
2021/06/06 04:05:41;;;;;;;11.95;6.43;;;;;;;17.87;62.40;99206.66;5070279;28;20040;-72
2021/06/06 04:08:08;;;;;;;15.93;6.30;;;;;;;18.00;62.00;99193.16;5037256;28;20412;-71
2021/06/06 04:10:40;;;;;;;18.35;6.38;;;;;;;18.25;61.37;99196.72;5070245;28;20474;-72
2021/06/06 04:13:07;;;;;;;11.55;6.80;;;;;;;18.43;60.69;99180.66;5053458;28;20747;-72
2021/06/06 04:15:35;;;;;;;15.77;6.22;;;;;;;18.64;60.00;99184.84;5071515;28;20068;-72
2021/06/06 04:18:20;;;;;;;12.80;5.93;;;;;;;18.88;59.18;99186.69;5053785;28;20105;-72
2021/06/06 04:20:49;;;;;;;17.98;8.23;;;;;;;19.00;58.85;99189.47;5070976;28;20048;-72
2021/06/06 04:23:18;;;;;;;19.33;7.53;;;;;;;19.10;58.60;99192.47;5053681;28;20416;-72
2021/06/06 04:25:46;;;;;;;17.70;6.97;;;;;;;19.24;58.47;99199.34;5053594;28;20075;-71
2021/06/06 04:28:16;;;;;;;12.45;6.57;;;;;;;19.34;57.82;99187.03;5071140;28;20052;-72
2021/06/06 04:30:43;;;;;;;15.52;7.03;;;;;;;19.42;57.57;99177.88;5069625;28;20107;-72
2021/06/06 04:33:10;;;;;;;19.17;7.25;;;;;;;19.56;57.77;99188.25;5052974;28;20182;-71
2021/06/06 04:35:39;;;;;;;10.73;6.22;;;;;;;19.60;56.98;99157.09;5053428;28;20583;-69
2021/06/06 04:38:07;;;;;;;16.10;5.80;;;;;;;19.90;56.68;99184.88;5069725;28;20531;-72
2021/06/06 04:40:36;;;;;;;11.80;5.82;;;;;;;20.07;56.34;99183.19;5069820;28;20043;-72
2021/06/06 04:43:04;;;;;;;13.32;6.70;;;;;;;20.31;55.60;99181.41;5036944;28;20044;-72
2021/06/06 04:45:30;;;;;;;20.48;6.45;;;;;;;20.54;54.68;99183.31;5069598;28;20040;-72
2021/06/06 04:48:10;;;;;;;16.77;7.38;;;;;;;20.74;54.00;99189.22;5053160;28;20040;-71
2021/06/06 04:50:37;;;;;;;16.80;7.60;;;;;;;20.86;53.80;99184.63;5069526;28;20502;-71
2021/06/06 04:53:04;;;;;;;11.32;6.20;;;;;;;20.99;53.30;99179.00;5069958;28;20106;-72
2021/06/06 04:55:32;;;;;;;10.38;5.75;;;;;;;21.08;52.85;99186.53;5052984;28;20045;-72
2021/06/06 04:57:58;;;;;;;14.93;5.90;;;;;;;21.12;52.49;99185.00;5070612;28;20051;-72
2021/06/06 05:00:33;;;;;;;12.05;4.85;;;;;;;21.18;52.27;99180.53;5069808;28;20054;-73
2021/06/06 05:03:01;;;;;;;14.23;5.20;;;;;;;21.21;52.00;99183.59;5069274;28;20062;-73
2021/06/06 05:05:29;;;;;;;15.18;5.30;;;;;;;21.27;51.92;99187.22;5069374;28;20091;-72
2021/06/06 05:07:58;;;;;;;13.02;5.00;;;;;;;21.27;51.80;99177.25;5036251;28;20049;-73
2021/06/06 05:10:26;;;;;;;8.23;5.28;;;;;;;21.28;52.00;99176.16;5053064;28;20047;-73
2021/06/06 05:12:53;;;;;;;9.95;5.22;;;;;;;21.29;51.75;99174.28;5052813;28;20057;-72
2021/06/06 05:15:20;;;;;;;9.88;4.68;;;;;;;21.33;51.44;99170.06;5069460;28;20044;-73
2021/06/06 05:17:48;;;;;;;10.52;5.00;;;;;;;21.38;51.47;99171.00;5069454;28;20504;-72
2021/06/06 05:20:17;;;;;;;12.30;5.25;;;;;;;21.56;51.25;99167.28;5052373;28;20151;-72
2021/06/06 05:22:43;;;;;;;11.40;5.20;;;;;;;21.66;50.86;99172.91;5069378;28;20079;-72
2021/06/06 05:25:12;;;;;;;9.63;5.05;;;;;;;21.69;50.66;99169.72;5052898;28;20089;-71
2021/06/06 05:27:38;;;;;;;14.43;5.85;;;;;;;21.71;50.76;99163.00;5053014;28;20060;-72
2021/06/06 05:30:07;;;;;;;16.25;5.90;;;;;;;21.70;50.58;99161.38;5068970;28;20086;-72
2021/06/06 05:32:33;;;;;;;14.43;5.13;;;;;;;21.85;50.57;99160.84;5070691;28;20580;-72
2021/06/06 05:35:00;;;;;;;10.15;5.28;;;;;;;22.11;50.10;99181.91;5056630;28;20078;-72
2021/06/06 05:37:26;;;;;;;16.55;5.20;;;;;;;22.27;49.68;99170.28;5057018;28;20044;-72
2021/06/06 05:39:53;;;;;;;10.35;5.32;;;;;;;22.42;49.45;99164.34;5074386;28;20633;-73
2021/06/06 05:42:19;;;;;;;15.48;5.63;;;;;;;22.51;48.93;99169.09;5073480;28;20074;-72
2021/06/06 05:44:45;;;;;;;12.65;5.03;;;;;;;22.67;48.68;99171.00;5073143;28;20389;-72
2021/06/06 05:47:11;;;;;;;12.18;5.15;;;;;;;22.84;48.03;99171.81;5072877;28;20051;-72
2021/06/06 05:49:37;;;;;;;12.52;4.78;;;;;;;22.99;47.98;99168.50;5073248;28;20158;-72
2021/06/06 05:52:08;;;;;;;11.88;4.70;;;;;;;23.12;47.55;99173.56;5056818;28;20043;-73
2021/06/06 05:54:33;;;;;;;11.13;4.75;;;;;;;23.26;47.66;99172.16;5074066;28;20048;-73
2021/06/06 05:56:59;;;;;;;7.95;4.60;;;;;;;23.41;47.28;99171.53;5055945;28;20557;-72
2021/06/06 05:59:26;;;;;;;14.07;5.38;;;;;;;23.49;46.73;99180.06;5055902;28;20064;-73
2021/06/06 06:01:52;;;;;;;12.27;4.72;;;;;;;23.58;46.51;99167.69;5072698;28;20037;-73
2021/06/06 06:04:18;;;;;;;8.63;4.40;;;;;;;23.72;46.44;99176.25;5073831;28;20048;-72
2021/06/06 06:06:44;;;;;;;12.88;4.85;;;;;;;23.80;46.00;99171.19;5055946;28;20044;-72
2021/06/06 06:09:10;;;;;;;17.67;4.90;;;;;;;23.91;46.00;99170.22;5072490;28;20044;-72
2021/06/06 06:11:36;;;;;;;11.10;4.80;;;;;;;24.10;45.52;99168.03;5073797;28;20543;-73
2021/06/06 06:14:02;;;;;;;6.80;4.28;;;;;;;24.33;44.75;99175.84;5072469;28;20401;-72
2021/06/06 06:16:30;;;;;;;10.07;4.40;;;;;;;24.52;44.53;99167.06;5072380;28;20079;-73
2021/06/06 06:18:57;;;;;;;14.93;4.88;;;;;;;24.64;43.96;99162.28;5072210;28;20420;-72
2021/06/06 06:21:25;;;;;;;9.27;4.10;;;;;;;24.99;43.78;99172.59;5072616;28;20524;-73
2021/06/06 06:23:51;;;;;;;11.50;4.88;;;;;;;25.25;43.05;99168.94;5072724;28;20540;-72
2021/06/06 06:26:19;;;;;;;13.32;4.68;;;;;;;25.33;42.53;99160.31;5039001;28;20058;-72
2021/06/06 06:28:53;;;;;;;9.55;4.82;;;;;;;25.40;42.11;99154.66;5056881;28;20131;-72
2021/06/06 06:31:51;;;;;;;11.18;3.90;;;;;;;25.67;41.60;99164.28;5048008;28;20059;-73
2021/06/06 06:34:39;;;;;;;7.43;3.47;;;;;;;25.79;41.26;99161.31;5045175;28;20036;-73
2021/06/06 06:37:07;;;;;;;10.00;3.92;;;;;;;25.75;40.93;99161.03;5055578;28;20048;-73
2021/06/06 06:39:33;;;;;;;4.60;3.08;;;;;;;25.80;40.67;99171.91;5073254;28;20049;-73
2021/06/06 06:41:59;;;;;;;7.18;3.72;;;;;;;25.77;40.49;99161.56;5073124;28;20055;-72
2021/06/06 06:44:25;;;;;;;6.50;3.22;;;;;;;25.76;40.37;99154.50;5072931;28;20048;-73
2021/06/06 06:46:53;;;;;;;11.55;3.08;;;;;;;25.82;40.17;99167.03;5055918;28;20070;-73
2021/06/06 06:49:19;;;;;;;7.50;2.40;;;;;;;26.06;39.74;99165.47;5071853;28;20440;-73
2021/06/06 06:51:45;;;;;;;7.03;3.50;;;;;;;26.36;39.43;99167.44;5071618;28;20079;-68
2021/06/06 06:54:11;;;;;;;12.35;3.75;;;;;;;26.67;38.65;99158.22;5038625;28;20036;-72
2021/06/06 06:56:36;;;;;;;6.70;3.13;;;;;;;26.90;38.26;99151.38;5071945;28;20446;-73
2021/06/06 06:59:02;;;;;;;7.15;3.15;;;;;;;26.99;37.96;99152.44;5071458;28;20070;-73
2021/06/06 07:01:28;;;;;;;8.73;3.08;;;;;;;26.98;38.06;99170.72;5072767;28;20040;-74
2021/06/06 07:03:54;;;;;;;7.15;3.30;;;;;;;26.87;38.15;99177.28;5055104;28;20047;-73
2021/06/06 07:06:20;;;;;;;10.25;3.10;;;;;;;27.05;37.91;99171.25;5071212;28;20072;-74
2021/06/06 07:08:46;;;;;;;7.40;2.92;;;;;;;27.21;37.43;99161.13;5071426;28;20044;-68
2021/06/06 07:11:18;;;;;;;8.32;2.72;;;;;;;27.26;37.58;99152.97;5038517;28;20360;-74
2021/06/06 07:13:45;;;;;;;6.65;3.17;;;;;;;27.32;37.29;99149.94;5054971;28;20455;-74
2021/06/06 07:16:11;;;;;;;5.25;3.10;;;;;;;27.62;36.87;99158.00;5071111;28;20063;-74
2021/06/06 07:18:38;;;;;;;8.75;2.70;;;;;;;27.81;36.72;99147.25;5071282;28;20052;-74
2021/06/06 07:21:08;;;;;;;5.07;2.67;;;;;;;28.00;35.98;99153.72;5071135;28;20600;-73
2021/06/06 07:23:35;;;;;;;8.65;2.65;;;;;;;28.14;35.83;99151.19;5037810;28;20044;-74
2021/06/06 07:26:04;;;;;;;7.50;2.70;;;;;;;28.50;34.85;99153.41;5070935;28;20044;-74
2021/06/06 07:28:31;;;;;;;6.45;2.92;;;;;;;28.56;34.67;99148.69;5054566;28;20527;-74
2021/06/06 07:31:00;;;;;;;6.55;2.47;;;;;;;28.68;34.44;99147.22;5070867;28;20088;-74
2021/06/06 07:33:31;;;;;;;6.18;2.45;;;;;;;29.13;33.56;99154.19;5054544;28;20106;-74
2021/06/06 07:35:58;;;;;;;8.32;2.83;;;;;;;29.36;33.26;99148.72;5054325;28;20098;-74
2021/06/06 07:38:25;;;;;;;5.45;2.72;;;;;;;29.37;33.17;99130.38;5070970;28;20105;-74
2021/06/06 07:40:52;;;;;;;8.20;2.40;;;;;;;29.69;32.63;99149.72;5070967;28;20044;-73
2021/06/06 07:43:18;;;;;;;5.50;2.13;;;;;;;30.06;32.12;99146.97;5054023;28;20062;-69
2021/06/06 07:45:44;;;;;;;3.58;2.22;;;;;;;31.60;30.02;99154.75;5070341;28;20047;-73
2021/06/06 07:48:12;;;;;;;7.22;2.40;;;;;;;33.68;26.97;99137.16;5037487;28;20584;-74
2021/06/06 07:50:42;;;;;;;4.57;2.15;;;;;;;35.78;24.11;99141.03;5072040;28;20072;-74
2021/06/06 07:53:08;;;;;;;;;;;;;;;37.54;22.28;99139.19;5054061;28;20117;-74
2021/06/06 07:55:34;;;;;;;4.40;2.13;;;;;;;38.78;21.15;99138.25;5053214;28;20395;-74
2021/06/06 07:58:00;;;;;;;12.77;3.47;;;;;;;39.16;20.01;99135.69;5053926;28;20139;-73
2021/06/06 08:00:42;;;;;;;7.93;2.85;;;;;;;40.35;18.85;99124.66;5070457;28;20048;-75
2021/06/06 08:03:09;;;;;;;4.93;1.90;;;;;;;41.09;17.61;99126.16;5071464;28;20041;-75
2021/06/06 08:05:36;;;;;;;3.50;1.90;;;;;;;41.85;16.90;99131.38;5036861;28;20110;-76
2021/06/06 08:08:04;;;;;;;3.13;2.10;;;;;;;42.59;16.30;99132.38;5071581;28;20040;-74
2021/06/06 08:10:32;;;;;;;7.63;2.53;;;;;;;42.64;16.29;99118.06;5071575;28;20044;-75
2021/06/06 08:12:58;;;;;;;10.20;2.03;;;;;;;43.02;15.55;99132.47;5069894;28;20393;-75
2021/06/06 08:15:24;;;;;;;4.60;1.75;;;;;;;42.24;16.18;99140.31;5053255;28;20051;-74
2021/06/06 08:17:51;;;;;;;5.47;1.80;;;;;;;42.89;16.13;99127.53;5071567;28;20048;-69
2021/06/06 08:20:23;;;;;;;9.57;2.00;;;;;;;43.85;14.94;99119.59;5071443;28;20036;-75
2021/06/06 08:22:49;;;;;;;4.80;1.75;;;;;;;44.44;14.74;99116.31;5070414;28;20515;-75
2021/06/06 08:25:16;;;;;;;3.67;1.58;;;;;;;44.82;14.76;99108.41;5036649;28;20072;-76
2021/06/06 08:27:43;;;;;;;7.35;1.80;;;;;;;43.96;14.86;99100.88;5036601;28;20036;-75
2021/06/06 08:30:20;;;;;;;5.65;1.60;;;;;;;42.63;15.57;99110.84;5069803;28;20044;-75
2021/06/06 08:32:46;;;;;;;6.72;2.10;;;;;;;40.02;17.69;99105.66;5053489;28;20056;-74
2021/06/06 08:35:12;;;;;;;3.53;1.60;;;;;;;40.02;18.00;99102.06;5069725;28;20059;-74
2021/06/06 08:37:38;;;;;;;6.03;1.60;;;;;;;39.34;18.46;99098.03;5070999;28;20041;-74
2021/06/06 08:40:08;;;;;;;3.97;1.40;;;;;;;39.87;17.68;99102.94;5053159;28;20049;-74
2021/06/06 08:42:37;;;;;;;4.13;1.50;;;;;;;40.21;17.27;99099.31;5053345;28;20052;-74
2021/06/06 08:45:34;;;;;;;10.38;2.53;;;;;;;41.45;16.36;99090.09;5069720;28;20063;-74
2021/06/06 08:48:01;;;;;;;5.93;2.20;;;;;;;41.41;16.57;99097.59;5069661;28;20144;-75
2021/06/06 08:50:32;;;;;;;4.95;2.03;;;;;;;40.51;17.57;99082.81;5036436;28;20040;-74
2021/06/06 08:53:03;;;;;;;3.55;1.60;;;;;;;38.87;18.24;99086.94;5069652;28;20079;-74
2021/06/06 08:55:47;;;;;;;9.80;1.60;;;;;;;39.09;18.58;99093.88;5052537;28;20044;-74
2021/06/06 08:58:28;;;;;;;3.15;1.17;;;;;;;39.66;17.87;99083.75;5069490;28;20048;-74
2021/06/06 09:01:00;;;;;;;7.05;1.73;;;;;;;40.36;17.35;99080.91;5052851;28;20067;-74
2021/06/06 09:03:28;;;;;;;4.15;1.70;;;;;;;42.26;16.06;99079.31;5069380;28;20500;-74
2021/06/06 09:06:06;;;;;;;8.13;2.08;;;;;;;40.83;17.24;99085.03;5052909;28;20090;-74
2021/06/06 09:08:33;;;;;;;5.10;1.60;;;;;;;39.14;18.52;99069.38;5074051;28;20098;-74
2021/06/06 09:11:04;;;;;;;4.00;1.33;;;;;;;37.50;19.55;99074.56;5007770;28;20127;-75
2021/06/06 09:13:33;;;;;;;6.00;1.80;;;;;;;35.64;21.65;99063.09;5057096;28;20385;-75
2021/06/06 09:16:15;;;;;;;10.38;1.60;;;;;;;34.66;23.01;99066.50;5074021;28;20134;-74
2021/06/06 09:18:46;;;;;;;8.50;2.83;;;;;;;36.43;21.73;99070.47;5073528;28;20045;-74
2021/06/06 09:21:22;;;;;;;7.35;3.20;;;;;;;38.60;19.60;99068.34;5040353;28;20055;-75
2021/06/06 09:23:51;;;;;;;3.42;2.00;;;;;;;39.04;18.82;99060.78;5056659;28;20048;-74
2021/06/06 09:26:17;;;;;;;7.03;1.70;;;;;;;38.53;18.97;99063.41;5073340;28;20045;-75
2021/06/06 09:28:46;;;;;;;7.60;1.92;;;;;;;37.26;20.43;99060.69;5056589;28;20056;-74
2021/06/06 09:31:22;;;;;;;3.43;1.90;;;;;;;36.11;21.26;99062.91;5056197;28;20080;-74
2021/06/06 09:33:49;;;;;;;8.63;1.95;;;;;;;34.76;22.65;99053.13;5073883;28;20439;-74
2021/06/06 09:36:17;;;;;;;3.30;1.60;;;;;;;33.95;23.91;99021.97;5040515;28;20143;-75
2021/06/06 09:38:44;;;;;;;4.72;1.80;;;;;;;33.86;24.18;99048.69;5056897;28;20044;-75
2021/06/06 09:41:16;;;;;;;4.20;1.75;;;;;;;32.83;25.36;99037.72;5056438;28;20068;-74
2021/06/06 09:44:03;;;;;;;6.38;2.25;;;;;;;32.57;25.97;99019.16;5056619;28;20048;-75
2021/06/06 09:46:39;;;;;;;8.35;2.47;;;;;;;32.76;26.19;99031.88;5032317;28;20075;-74
2021/06/06 09:49:23;;;;;;;7.78;2.10;;;;;;;34.33;24.13;99032.28;5072744;28;20146;-74
2021/06/06 09:51:49;;;;;;;4.15;1.90;;;;;;;36.38;21.78;99023.66;5073001;28;20048;-74
2021/06/06 09:54:35;;;;;;;2.75;1.75;;;;;;;38.77;19.37;99022.78;5072825;28;20060;-75
2021/06/06 09:57:04;;;;;;;4.07;1.80;;;;;;;40.66;17.58;99006.72;5071579;28;20115;-74
2021/06/06 09:59:33;;;;;;;3.22;1.58;;;;;;;41.26;17.07;99014.13;5055583;28;20135;-76
2021/06/06 10:02:30;;;;;;;4.60;1.77;;;;;;;42.34;15.82;99016.78;5073434;28;20040;-76
2021/06/06 10:05:25;;;;;;;4.05;1.80;;;;;;;40.44;17.33;99010.31;5039595;28;20056;-72
2021/06/06 10:08:17;;;;;;;4.88;1.88;;;;;;;39.31;17.96;99010.66;5030995;28;20513;-81
2021/06/06 10:10:46;;;;;;;4.07;1.70;;;;;;;40.58;17.32;99010.56;5042319;28;20554;-79
2021/06/06 10:13:20;;;;;;;5.90;1.75;;;;;;;42.17;16.15;98992.25;5056930;28;20090;-76
2021/06/06 10:15:50;;;;;;;4.78;1.63;;;;;;;43.54;14.98;99005.47;5038815;28;20052;-80
2021/06/06 10:18:34;;;;;;;4.70;1.83;;;;;;;43.69;14.46;98998.75;5036895;28;20044;-73
2021/06/06 10:21:12;;;;;;;3.60;1.67;;;;;;;42.30;15.60;98985.22;5072335;28;20040;-74
2021/06/06 10:23:56;;;;;;;3.80;1.63;;;;;;;40.27;16.90;98983.75;5073126;28;20131;-75
2021/06/06 10:26:34;;;;;;;4.75;1.88;;;;;;;38.58;18.78;98979.88;5022265;28;20135;-77
2021/06/06 10:29:24;;;;;;;5.68;1.65;;;;;;;36.71;20.80;98978.16;5055305;28;20075;-75
2021/06/06 10:31:52;;;;;;;3.78;2.45;;;;;;;34.99;22.55;98988.28;5055195;28;20045;-75
2021/06/06 10:34:36;;;;;;;9.68;3.00;;;;;;;33.89;23.91;98986.66;5037428;28;20037;-72
2021/06/06 10:37:02;;;;;;;11.10;2.08;;;;;;;32.82;25.37;98981.06;5070311;28;20065;-71
2021/06/06 10:39:40;;;;;;;7.95;2.20;;;;;;;32.03;26.55;98978.25;5058799;28;20511;-71
2021/06/06 10:42:11;;;;;;;9.75;1.98;;;;;;;31.17;28.11;98978.59;5051113;28;20548;-74
2021/06/06 10:44:58;;;;;;;7.38;2.33;;;;;;;30.48;29.44;98967.94;5058579;28;20101;-71
2021/06/06 10:47:29;;;;;;;5.68;2.22;;;;;;;29.99;29.95;98967.72;5111884;28;20100;-71
2021/06/06 10:50:05;;;;;;;9.18;2.15;;;;;;;29.57;30.77;98968.63;5094732;28;20093;-70
2021/06/06 10:52:35;;;;;;;8.18;2.22;;;;;;;29.18;31.29;98965.41;5093742;28;20528;-79
2021/06/06 10:55:22;;;;;;;11.40;2.60;;;;;;;28.91;31.61;98962.44;5061164;28;20564;-72
2021/06/06 10:57:49;;;;;;;13.32;3.42;;;;;;;28.61;32.35;98960.91;5080288;28;20908;-71
2021/06/06 11:00:17;;;;;;;8.23;3.35;;;;;;;28.32;32.44;98968.31;5070780;28;20060;-74
2021/06/06 11:02:49;;;;;;;8.13;3.60;;;;;;;28.03;33.31;98962.06;5053891;28;20496;-75
2021/06/06 11:05:37;;;;;;;7.35;3.40;;;;;;;27.65;34.11;98958.25;5043018;28;20044;-73
2021/06/06 11:08:35;;;;;;;6.20;3.25;;;;;;;27.23;35.23;98957.16;5079986;28;20040;-72
2021/06/06 11:11:10;;;;;;;7.63;2.70;;;;;;;26.75;36.99;98963.38;5080638;28;20059;-73
2021/06/06 11:13:41;;;;;;;8.25;3.20;;;;;;;26.52;37.78;98968.31;5080057;28;20028;-74
2021/06/06 11:16:16;;;;;;;16.60;3.70;;;;;;;26.40;39.18;98965.09;5062432;28;20044;-73
2021/06/06 11:19:00;;;;;;;5.93;3.53;;;;;;;26.33;38.80;98967.31;5062917;28;20044;-73
2021/06/06 11:21:45;;;;;;;9.48;3.35;;;;;;;26.29;39.24;98974.38;5047471;28;20036;-73
2021/06/06 11:24:29;;;;;;;7.80;3.53;;;;;;;26.28;39.37;98967.31;5079391;28;20625;-71
2021/06/06 11:27:10;;;;;;;10.68;3.25;;;;;;;26.24;40.04;98970.84;5067754;28;20055;-72
2021/06/06 11:29:59;;;;;;;11.38;2.92;;;;;;;25.99;41.23;98979.88;5078157;28;20099;-73
2021/06/06 11:32:29;;;;;;;9.27;2.92;;;;;;;25.52;42.18;98992.91;5053378;28;20051;-72
2021/06/06 11:35:18;;;;;;;5.55;3.10;;;;;;;25.29;43.43;99004.25;5029229;28;20043;-72
2021/06/06 11:37:47;;;;;;;10.68;3.83;;;;;;;25.26;42.94;98999.34;5061863;28;20503;-71
2021/06/06 11:40:35;;;;;;;17.88;3.63;;;;;;;25.41;43.35;98995.84;5078527;28;20036;-71
2021/06/06 11:43:28;;;;;;;13.18;3.80;;;;;;;25.68;42.66;98991.00;5050608;28;20524;-72
2021/06/06 11:45:58;;;;;;;7.97;3.78;;;;;;;26.04;42.32;98989.94;5071984;28;20054;-71
2021/06/06 11:48:31;;;;;;;12.63;4.15;;;;;;;26.46;41.92;98983.06;5051153;28;20041;-71